sensor_id;sensor_type;location;lat;lon;timestamp;pressure;altitude;pressure_sealevel;temperature;humidity
51417;BME280;50158;51.528;6.982;2022-08-19T00:02:47;68270;;;17.51;100
51417;BME280;50158;51.528;6.982;2022-08-19T00:05:15;68270;;;17.46;100
51417;BME280;50158;51.528;6.982;2022-08-19T00:07:43;68270;;;17.46;100
51417;BME280;50158;51.528;6.982;2022-08-19T00:10:12;68260;;;17.37;100
51417;BME280;50158;51.528;6.982;2022-08-19T00:12:40;68260;;;17.33;100
51417;BME280;50158;51.528;6.982;2022-08-19T00:15:09;68250;;;17.27;100
51417;BME280;50158;51.528;6.982;2022-08-19T00:17:37;68250;;;17.26;100
51417;BME280;50158;51.528;6.982;2022-08-19T00:20:05;68250;;;17.26;100
51417;BME280;50158;51.528;6.982;2022-08-19T00:22:33;68250;;;17.23;100
51417;BME280;50158;51.528;6.982;2022-08-19T00:25:01;68250;;;17.23;100
51417;BME280;50158;51.528;6.982;2022-08-19T00:27:29;68240;;;17.23;100
51417;BME280;50158;51.528;6.982;2022-08-19T00:29:58;68260;;;17.33;100
51417;BME280;50158;51.528;6.982;2022-08-19T00:32:26;68250;;;17.26;100
51417;BME280;50158;51.528;6.982;2022-08-19T00:34:54;68240;;;17.21;100
51417;BME280;50158;51.528;6.982;2022-08-19T00:37:23;68240;;;17.16;100
51417;BME280;50158;51.528;6.982;2022-08-19T00:39:51;68230;;;17.14;100
51417;BME280;50158;51.528;6.982;2022-08-19T00:42:20;68230;;;17.08;100
51417;BME280;50158;51.528;6.982;2022-08-19T00:44:47;68220;;;17.04;100
51417;BME280;50158;51.528;6.982;2022-08-19T00:47:16;68220;;;17;100
51417;BME280;50158;51.528;6.982;2022-08-19T00:49:45;68240;;;17.16;100
51417;BME280;50158;51.528;6.982;2022-08-19T00:52:14;68230;;;17.14;100
51417;BME280;50158;51.528;6.982;2022-08-19T00:54:41;68240;;;17.18;100
51417;BME280;50158;51.528;6.982;2022-08-19T00:57:10;68230;;;17.06;100
51417;BME280;50158;51.528;6.982;2022-08-19T00:59:37;68220;;;16.99;100
51417;BME280;50158;51.528;6.982;2022-08-19T01:04:01;68210;;;16.93;100
51417;BME280;50158;51.528;6.982;2022-08-19T01:06:29;68210;;;16.87;100
51417;BME280;50158;51.528;6.982;2022-08-19T01:08:58;68210;;;16.87;100
51417;BME280;50158;51.528;6.982;2022-08-19T01:11:26;68200;;;16.85;100
51417;BME280;50158;51.528;6.982;2022-08-19T01:13:54;68200;;;16.81;100
51417;BME280;50158;51.528;6.982;2022-08-19T01:16:23;68200;;;16.79;100
51417;BME280;50158;51.528;6.982;2022-08-19T01:18:50;68210;;;16.89;100
51417;BME280;50158;51.528;6.982;2022-08-19T01:21:22;68190;;;16.78;100
51417;BME280;50158;51.528;6.982;2022-08-19T01:23:47;68190;;;16.73;100
51417;BME280;50158;51.528;6.982;2022-08-19T01:26:16;68190;;;16.68;100
51417;BME280;50158;51.528;6.982;2022-08-19T01:28:44;68180;;;16.66;100
51417;BME280;50158;51.528;6.982;2022-08-19T01:31:13;68180;;;16.62;100
51417;BME280;50158;51.528;6.982;2022-08-19T01:33:40;68180;;;16.61;100
51417;BME280;50158;51.528;6.982;2022-08-19T01:36:10;68170;;;16.57;100
51417;BME280;50158;51.528;6.982;2022-08-19T01:41:22;68170;;;16.58;100
51417;BME280;50158;51.528;6.982;2022-08-19T01:43:50;68170;;;16.51;100
51417;BME280;50158;51.528;6.982;2022-08-19T01:46:18;68170;;;16.54;100
51417;BME280;50158;51.528;6.982;2022-08-19T01:48:46;68170;;;16.54;100
51417;BME280;50158;51.528;6.982;2022-08-19T01:51:14;68180;;;16.64;100
51417;BME280;50158;51.528;6.982;2022-08-19T01:53:45;68170;;;16.54;100
51417;BME280;50158;51.528;6.982;2022-08-19T01:56:11;68160;;;16.49;100
51417;BME280;50158;51.528;6.982;2022-08-19T01:58:41;68160;;;16.49;100
51417;BME280;50158;51.528;6.982;2022-08-19T02:01:07;68160;;;16.48;100
51417;BME280;50158;51.528;6.982;2022-08-19T02:05:31;68150;;;16.37;100
51417;BME280;50158;51.528;6.982;2022-08-19T02:07:59;68150;;;16.37;100
51417;BME280;50158;51.528;6.982;2022-08-19T02:10:28;68170;;;16.54;100
51417;BME280;50158;51.528;6.982;2022-08-19T02:12:56;68160;;;16.45;100
51417;BME280;50158;51.528;6.982;2022-08-19T02:15:24;68160;;;16.43;100
51417;BME280;50158;51.528;6.982;2022-08-19T02:17:53;68150;;;16.37;100
51417;BME280;50158;51.528;6.982;2022-08-19T02:20:21;68160;;;16.48;100
51417;BME280;50158;51.528;6.982;2022-08-19T02:22:49;68160;;;16.44;100
51417;BME280;50158;51.528;6.982;2022-08-19T02:25:17;68170;;;16.53;100
51417;BME280;50158;51.528;6.982;2022-08-19T02:27:46;68180;;;16.67;100
51417;BME280;50158;51.528;6.982;2022-08-19T02:30:15;68170;;;16.5;100
51417;BME280;50158;51.528;6.982;2022-08-19T02:32:42;68150;;;16.37;100
51417;BME280;50158;51.528;6.982;2022-08-19T02:35:11;68140;;;16.28;100
51417;BME280;50158;51.528;6.982;2022-08-19T02:37:39;68140;;;16.26;100
51417;BME280;50158;51.528;6.982;2022-08-19T02:40:07;68140;;;16.28;100
51417;BME280;50158;51.528;6.982;2022-08-19T02:42:35;68140;;;16.28;100
51417;BME280;50158;51.528;6.982;2022-08-19T02:45:04;68150;;;16.39;100
51417;BME280;50158;51.528;6.982;2022-08-19T02:47:32;68140;;;16.28;100
51417;BME280;50158;51.528;6.982;2022-08-19T02:50:01;68150;;;16.36;100
51417;BME280;50158;51.528;6.982;2022-08-19T02:52:28;68150;;;16.39;100
51417;BME280;50158;51.528;6.982;2022-08-19T02:54:57;68150;;;16.37;100
51417;BME280;50158;51.528;6.982;2022-08-19T02:57:25;68160;;;16.48;100
51417;BME280;50158;51.528;6.982;2022-08-19T02:59:53;68150;;;16.35;100
51417;BME280;50158;51.528;6.982;2022-08-19T03:02:22;68140;;;16.24;100
51417;BME280;50158;51.528;6.982;2022-08-19T03:04:50;68130;;;16.2;100
51417;BME280;50158;51.528;6.982;2022-08-19T03:07:18;68130;;;16.17;100
51417;BME280;50158;51.528;6.982;2022-08-19T03:11:42;68120;;;16.11;100
51417;BME280;50158;51.528;6.982;2022-08-19T03:14:10;68120;;;16.07;100
51417;BME280;50158;51.528;6.982;2022-08-19T03:16:41;68140;;;16.27;100
51417;BME280;50158;51.528;6.982;2022-08-19T03:19:07;68130;;;16.17;100
51417;BME280;50158;51.528;6.982;2022-08-19T03:21:35;68120;;;16.11;100
51417;BME280;50158;51.528;6.982;2022-08-19T03:24:04;68130;;;16.17;100
51417;BME280;50158;51.528;6.982;2022-08-19T03:26:32;68140;;;16.31;100
51417;BME280;50158;51.528;6.982;2022-08-19T03:29:02;68140;;;16.24;100
51417;BME280;50158;51.528;6.982;2022-08-19T03:31:28;68140;;;16.27;100
51417;BME280;50158;51.528;6.982;2022-08-19T03:33:56;68130;;;16.18;100
51417;BME280;50158;51.528;6.982;2022-08-19T03:36:26;68130;;;16.14;100
51417;BME280;50158;51.528;6.982;2022-08-19T03:38:56;68120;;;16.06;100
51417;BME280;50158;51.528;6.982;2022-08-19T03:41:22;68120;;;16.06;100
51417;BME280;50158;51.528;6.982;2022-08-19T03:43:50;68120;;;16.1;100
51417;BME280;50158;51.528;6.982;2022-08-19T03:46:19;68120;;;16.08;100
51417;BME280;50158;51.528;6.982;2022-08-19T03:48:47;68120;;;16.04;100
51417;BME280;50158;51.528;6.982;2022-08-19T03:51:16;68110;;;16.02;100
51417;BME280;50158;51.528;6.982;2022-08-19T03:53:43;68110;;;15.97;100
51417;BME280;50158;51.528;6.982;2022-08-19T03:56:11;68120;;;16.12;100
51417;BME280;50158;51.528;6.982;2022-08-19T03:58:39;68120;;;16.12;100
51417;BME280;50158;51.528;6.982;2022-08-19T04:01:08;68110;;;16.04;100
51417;BME280;50158;51.528;6.982;2022-08-19T04:03:36;68120;;;16.09;100
51417;BME280;50158;51.528;6.982;2022-08-19T04:06:12;68130;;;16.16;100
51417;BME280;50158;51.528;6.982;2022-08-19T04:10:28;68110;;;16.03;100
51417;BME280;50158;51.528;6.982;2022-08-19T04:12:56;68110;;;16;100
51417;BME280;50158;51.528;6.982;2022-08-19T04:15:24;68100;;;15.95;100
51417;BME280;50158;51.528;6.982;2022-08-19T04:17:53;68110;;;15.99;100
51417;BME280;50158;51.528;6.982;2022-08-19T04:20:21;68110;;;16.03;100
51417;BME280;50158;51.528;6.982;2022-08-19T04:22:49;68110;;;15.95;100
51417;BME280;50158;51.528;6.982;2022-08-19T04:25:17;68100;;;15.87;100
51417;BME280;50158;51.528;6.982;2022-08-19T04:27:46;68090;;;15.82;100
51417;BME280;50158;51.528;6.982;2022-08-19T04:30:14;68090;;;15.77;100
51417;BME280;50158;51.528;6.982;2022-08-19T04:35:11;68080;;;15.71;100
51417;BME280;50158;51.528;6.982;2022-08-19T04:37:39;68080;;;15.71;100
51417;BME280;50158;51.528;6.982;2022-08-19T04:40:07;68080;;;15.71;100
51417;BME280;50158;51.528;6.982;2022-08-19T04:42:35;68080;;;15.68;100
51417;BME280;50158;51.528;6.982;2022-08-19T04:45:05;68070;;;15.66;100
51417;BME280;50158;51.528;6.982;2022-08-19T04:47:32;68070;;;15.66;100
51417;BME280;50158;51.528;6.982;2022-08-19T04:50:00;68070;;;15.64;100
51417;BME280;50158;51.528;6.982;2022-08-19T04:52:28;68070;;;15.68;100
51417;BME280;50158;51.528;6.982;2022-08-19T04:54:57;68080;;;15.69;100
51417;BME280;50158;51.528;6.982;2022-08-19T04:57:25;68080;;;15.68;100
51417;BME280;50158;51.528;6.982;2022-08-19T04:59:54;68080;;;15.69;100
51417;BME280;50158;51.528;6.982;2022-08-19T05:02:22;68080;;;15.73;100
51417;BME280;50158;51.528;6.982;2022-08-19T05:04:51;68090;;;15.78;100
51417;BME280;50158;51.528;6.982;2022-08-19T05:09:14;68100;;;15.87;100
51417;BME280;50158;51.528;6.982;2022-08-19T05:11:42;68100;;;15.89;100
51417;BME280;50158;51.528;6.982;2022-08-19T05:14:10;68100;;;15.93;100
51417;BME280;50158;51.528;6.982;2022-08-19T05:16:39;68110;;;15.98;100
51417;BME280;50158;51.528;6.982;2022-08-19T05:19:07;68120;;;16.07;100
51417;BME280;50158;51.528;6.982;2022-08-19T05:21:35;68130;;;16.14;100
51417;BME280;50158;51.528;6.982;2022-08-19T05:24:04;68140;;;16.25;100
51417;BME280;50158;51.528;6.982;2022-08-19T05:26:32;68150;;;16.4;100
51417;BME280;50158;51.528;6.982;2022-08-19T05:29:00;68160;;;16.49;100
51417;BME280;50158;51.528;6.982;2022-08-19T05:31:28;68170;;;16.57;100
51417;BME280;50158;51.528;6.982;2022-08-19T05:33:57;68180;;;16.64;100
51417;BME280;50158;51.528;6.982;2022-08-19T05:36:26;68190;;;16.78;100
51417;BME280;50158;51.528;6.982;2022-08-19T05:38:53;68210;;;16.9;100
51417;BME280;50158;51.528;6.982;2022-08-19T05:41:22;68230;;;17.11;100
51417;BME280;50158;51.528;6.982;2022-08-19T05:43:49;68240;;;17.24;100
51417;BME280;50158;51.528;6.982;2022-08-19T05:46:18;68270;;;17.48;100
51417;BME280;50158;51.528;6.982;2022-08-19T05:48:46;68280;;;17.57;100
51417;BME280;50158;51.528;6.982;2022-08-19T05:51:14;68290;;;17.67;100
51417;BME280;50158;51.528;6.982;2022-08-19T05:53:43;68300;;;17.75;100
51417;BME280;50158;51.528;6.982;2022-08-19T05:56:13;68300;;;17.79;100
51417;BME280;50158;51.528;6.982;2022-08-19T05:58:39;68300;;;17.78;100
51417;BME280;50158;51.528;6.982;2022-08-19T06:01:10;68300;;;17.73;100
51417;BME280;50158;51.528;6.982;2022-08-19T06:03:36;68300;;;17.75;100
51417;BME280;50158;51.528;6.982;2022-08-19T06:06:04;68300;;;17.76;100
51417;BME280;50158;51.528;6.982;2022-08-19T06:10:28;68320;;;17.95;100
51417;BME280;50158;51.528;6.982;2022-08-19T06:12:56;68330;;;18;100
51417;BME280;50158;51.528;6.982;2022-08-19T06:15:24;68350;;;18.26;100
51417;BME280;50158;51.528;6.982;2022-08-19T06:17:53;68370;;;18.36;100
51417;BME280;50158;51.528;6.982;2022-08-19T06:20:21;68380;;;18.45;100
51417;BME280;50158;51.528;6.982;2022-08-19T06:22:49;68390;;;18.54;100
51417;BME280;50158;51.528;6.982;2022-08-19T06:25:17;68410;;;18.77;100
51417;BME280;50158;51.528;6.982;2022-08-19T06:30:14;68430;;;18.99;100
51417;BME280;50158;51.528;6.982;2022-08-19T06:32:42;68440;;;19;100
51417;BME280;50158;51.528;6.982;2022-08-19T06:35:11;68450;;;19.12;100
51417;BME280;50158;51.528;6.982;2022-08-19T06:37:39;68440;;;19.04;100
51417;BME280;50158;51.528;6.982;2022-08-19T06:42:52;68430;;;18.99;100
51417;BME280;50158;51.528;6.982;2022-08-19T06:45:20;68450;;;19.12;100
51417;BME280;50158;51.528;6.982;2022-08-19T06:47:48;68440;;;19.01;100
51417;BME280;50158;51.528;6.982;2022-08-19T06:50:17;68440;;;19.01;100
51417;BME280;50158;51.528;6.982;2022-08-19T06:52:45;68440;;;19.01;100
51417;BME280;50158;51.528;6.982;2022-08-19T06:55:13;68470;;;19.28;100
51417;BME280;50158;51.528;6.982;2022-08-19T06:57:41;68460;;;19.27;100
51417;BME280;50158;51.528;6.982;2022-08-19T07:00:10;68480;;;19.44;100
51417;BME280;50158;51.528;6.982;2022-08-19T07:02:38;68480;;;19.37;100
51417;BME280;50158;51.528;6.982;2022-08-19T07:07:35;68500;;;19.57;100
51417;BME280;50158;51.528;6.982;2022-08-19T07:11:58;68520;;;19.78;100
51417;BME280;50158;51.528;6.982;2022-08-19T07:14:27;68530;;;19.83;100
51417;BME280;50158;51.528;6.982;2022-08-19T07:16:56;68530;;;19.86;100
51417;BME280;50158;51.528;6.982;2022-08-19T07:19:24;68550;;;20.09;100
51417;BME280;50158;51.528;6.982;2022-08-19T07:21:52;68580;;;20.33;100
51417;BME280;50158;51.528;6.982;2022-08-19T07:24:20;68580;;;20.36;100
51417;BME280;50158;51.528;6.982;2022-08-19T07:26:48;68600;;;20.49;100
51417;BME280;50158;51.528;6.982;2022-08-19T07:29:17;68610;;;20.58;100
51417;BME280;50158;51.528;6.982;2022-08-19T07:31:44;68620;;;20.69;100
51417;BME280;50158;51.528;6.982;2022-08-19T07:34:13;68630;;;20.8;100
51417;BME280;50158;51.528;6.982;2022-08-19T07:36:41;68640;;;20.86;100
51417;BME280;50158;51.528;6.982;2022-08-19T07:39:12;68640;;;20.89;100
51417;BME280;50158;51.528;6.982;2022-08-19T07:41:38;68640;;;20.87;100
51417;BME280;50158;51.528;6.982;2022-08-19T07:44:07;68660;;;21.02;100
51417;BME280;50158;51.528;6.982;2022-08-19T07:46:35;68670;;;21.12;100
51417;BME280;50158;51.528;6.982;2022-08-19T07:49:03;68650;;;21.01;100
51417;BME280;50158;51.528;6.982;2022-08-19T07:51:31;68660;;;21.09;100
51417;BME280;50158;51.528;6.982;2022-08-19T07:53:59;68660;;;21.03;100
51417;BME280;50158;51.528;6.982;2022-08-19T07:56:27;68680;;;21.26;100
51417;BME280;50158;51.528;6.982;2022-08-19T07:58:56;68690;;;21.35;100
51417;BME280;50158;51.528;6.982;2022-08-19T08:01:25;68740;;;21.77;100
51417;BME280;50158;51.528;6.982;2022-08-19T08:03:52;68740;;;21.79;100
51417;BME280;50158;51.528;6.982;2022-08-19T08:06:20;68790;;;22.25;100
51417;BME280;50158;51.528;6.982;2022-08-19T08:08:49;68810;;;22.47;100
51417;BME280;50158;51.528;6.982;2022-08-19T08:13:12;68860;;;22.95;100
51417;BME280;50158;51.528;6.982;2022-08-19T08:15:41;68900;;;23.25;100
51417;BME280;50158;51.528;6.982;2022-08-19T08:18:10;68890;;;23.22;100
51417;BME280;50158;51.528;6.982;2022-08-19T08:20:38;68900;;;23.23;100
51417;BME280;50158;51.528;6.982;2022-08-19T08:23:06;68910;;;23.32;100
51417;BME280;50158;51.528;6.982;2022-08-19T08:25:34;68890;;;23.17;100
51417;BME280;50158;51.528;6.982;2022-08-19T08:28:02;68880;;;23.06;100
51417;BME280;50158;51.528;6.982;2022-08-19T08:30:31;68910;;;23.36;100
51417;BME280;50158;51.528;6.982;2022-08-19T08:32:59;68920;;;23.42;100
51417;BME280;50158;51.528;6.982;2022-08-19T08:35:27;68910;;;23.36;100
51417;BME280;50158;51.528;6.982;2022-08-19T08:37:55;68890;;;23.19;100
51417;BME280;50158;51.528;6.982;2022-08-19T08:43:07;68860;;;22.92;100
51417;BME280;50158;51.528;6.982;2022-08-19T08:45:20;68830;;;22.66;100
51417;BME280;50158;51.528;6.982;2022-08-19T08:47:49;68850;;;22.8;100
51417;BME280;50158;51.528;6.982;2022-08-19T08:50:18;68860;;;22.91;100
51417;BME280;50158;51.528;6.982;2022-08-19T08:55:16;68870;;;22.95;100
51417;BME280;50158;51.528;6.982;2022-08-19T08:57:48;68890;;;23.15;100
51417;BME280;50158;51.528;6.982;2022-08-19T09:00:11;68920;;;23.47;97.13
51417;BME280;50158;51.528;6.982;2022-08-19T09:02:38;68940;;;23.62;96.41
51417;BME280;50158;51.528;6.982;2022-08-19T09:05:06;68970;;;23.87;90.63
51417;BME280;50158;51.528;6.982;2022-08-19T09:08:08;68960;;;23.85;91.79
51417;BME280;50158;51.528;6.982;2022-08-19T09:17:29;68940;;;23.63;87.4
51417;BME280;50158;51.528;6.982;2022-08-19T09:19:58;68940;;;23.62;88.68
51417;BME280;50158;51.528;6.982;2022-08-19T09:22:24;68910;;;23.39;86.89
51417;BME280;50158;51.528;6.982;2022-08-19T09:24:53;68910;;;23.32;87.01
51417;BME280;50158;51.528;6.982;2022-08-19T09:27:21;68920;;;23.46;88.2
51417;BME280;50158;51.528;6.982;2022-08-19T09:29:49;68910;;;23.39;89.33
51417;BME280;50158;51.528;6.982;2022-08-19T09:32:17;68970;;;23.94;84.7
51417;BME280;50158;51.528;6.982;2022-08-19T09:34:46;68950;;;23.76;84.56
51417;BME280;50158;51.528;6.982;2022-08-19T09:37:14;68960;;;23.81;81.77
51417;BME280;50158;51.528;6.982;2022-08-19T09:39:42;68960;;;23.85;80.84
51417;BME280;50158;51.528;6.982;2022-08-19T09:42:10;69030;;;24.44;80.53
51417;BME280;50158;51.528;6.982;2022-08-19T09:44:39;69020;;;24.33;79.67
51417;BME280;50158;51.528;6.982;2022-08-19T09:47:08;69010;;;24.27;80.76
51417;BME280;50158;51.528;6.982;2022-08-19T09:49:35;69040;;;24.58;79.16
51417;BME280;50158;51.528;6.982;2022-08-19T09:52:03;69060;;;24.71;79.66
51417;BME280;50158;51.528;6.982;2022-08-19T09:54:32;69100;;;25.1;77.54
51417;BME280;50158;51.528;6.982;2022-08-19T09:57:00;69100;;;25.07;76.98
51417;BME280;50158;51.528;6.982;2022-08-19T09:59:28;69170;;;25.74;75.91
51417;BME280;50158;51.528;6.982;2022-08-19T10:01:57;69170;;;25.78;75.92
51417;BME280;50158;51.528;6.982;2022-08-19T10:04:25;69190;;;25.96;75.28
51417;BME280;50158;51.528;6.982;2022-08-19T10:06:55;69290;;;26.81;71.51
51417;BME280;50158;51.528;6.982;2022-08-19T10:09:21;69210;;;26.12;74.83
51417;BME280;50158;51.528;6.982;2022-08-19T10:11:50;69210;;;26.15;74.1
51417;BME280;50158;51.528;6.982;2022-08-19T10:16:15;69290;;;26.81;71.59
51417;BME280;50158;51.528;6.982;2022-08-19T10:18:42;69340;;;27.25;70.29
51417;BME280;50158;51.528;6.982;2022-08-19T10:21:11;69300;;;26.92;69.84
51417;BME280;50158;51.528;6.982;2022-08-19T10:23:39;69290;;;26.84;70.08
51417;BME280;50158;51.528;6.982;2022-08-19T10:26:07;69190;;;25.93;73.28
51417;BME280;50158;51.528;6.982;2022-08-19T10:28:35;69160;;;25.67;75.66
51417;BME280;50158;51.528;6.982;2022-08-19T10:31:04;69170;;;25.77;75.65
51417;BME280;50158;51.528;6.982;2022-08-19T10:36:01;69250;;;26.48;71.67
51417;BME280;50158;51.528;6.982;2022-08-19T10:38:28;69210;;;26.07;73.05
51417;BME280;50158;51.528;6.982;2022-08-19T10:40:56;69220;;;26.23;71.91
51417;BME280;50158;51.528;6.982;2022-08-19T10:43:25;69180;;;25.84;73.87
51417;BME280;50158;51.528;6.982;2022-08-19T10:45:54;69170;;;25.75;74.71
51417;BME280;50158;51.528;6.982;2022-08-19T10:48:21;69190;;;25.91;74.25
51417;BME280;50158;51.528;6.982;2022-08-19T10:50:49;69190;;;25.89;74.24
51417;BME280;50158;51.528;6.982;2022-08-19T10:53:18;69200;;;26.01;71.7
51417;BME280;50158;51.528;6.982;2022-08-19T10:55:46;69290;;;26.82;69.5
51417;BME280;50158;51.528;6.982;2022-08-19T10:58:15;69360;;;27.43;63.69
51417;BME280;50158;51.528;6.982;2022-08-19T11:03:11;69420;;;27.97;61.63
51417;BME280;50158;51.528;6.982;2022-08-19T11:05:39;69450;;;28.3;61.51
51417;BME280;50158;51.528;6.982;2022-08-19T11:08:08;69330;;;27.2;62.58
51417;BME280;50158;51.528;6.982;2022-08-19T11:10:36;69360;;;27.5;62.92
51417;BME280;50158;51.528;6.982;2022-08-19T11:13:04;69290;;;26.84;66.58
51417;BME280;50158;51.528;6.982;2022-08-19T11:15:32;69240;;;26.39;68.69
51417;BME280;50158;51.528;6.982;2022-08-19T11:18:00;69160;;;25.63;72.17
51417;BME280;50158;51.528;6.982;2022-08-19T11:22:24;69200;;;25.98;70.82
51417;BME280;50158;51.528;6.982;2022-08-19T11:24:52;69200;;;26.03;70.96
51417;BME280;50158;51.528;6.982;2022-08-19T11:27:21;69150;;;25.58;72.57
51417;BME280;50158;51.528;6.982;2022-08-19T11:29:49;69230;;;26.25;70.63
51417;BME280;50158;51.528;6.982;2022-08-19T11:32:17;69210;;;26.15;70.56
51417;BME280;50158;51.528;6.982;2022-08-19T11:37:14;69340;;;27.3;64.5
51417;BME280;50158;51.528;6.982;2022-08-19T11:42:27;69250;;;26.48;67.18
51417;BME280;50158;51.528;6.982;2022-08-19T11:44:55;69270;;;26.64;67.08
51417;BME280;50158;51.528;6.982;2022-08-19T11:47:23;69240;;;26.33;66.69
51417;BME280;50158;51.528;6.982;2022-08-19T11:49:52;69210;;;26.12;68.81
51417;BME280;50158;51.528;6.982;2022-08-19T11:52:20;69200;;;26.02;69.67
51417;BME280;50158;51.528;6.982;2022-08-19T11:54:48;69190;;;25.92;69.17
51417;BME280;50158;51.528;6.982;2022-08-19T11:57:16;69150;;;25.58;70.22
51417;BME280;50158;51.528;6.982;2022-08-19T12:02:13;69170;;;25.75;68.54
51417;BME280;50158;51.528;6.982;2022-08-19T12:04:41;69240;;;26.34;66.6
51417;BME280;50158;51.528;6.982;2022-08-19T12:07:10;69220;;;26.16;66.3
51417;BME280;50158;51.528;6.982;2022-08-19T12:09:38;69340;;;27.3;62.69
51417;BME280;50158;51.528;6.982;2022-08-19T12:14:34;69250;;;26.42;64.2
51417;BME280;50158;51.528;6.982;2022-08-19T12:18:58;69270;;;26.68;63.41
51417;BME280;50158;51.528;6.982;2022-08-19T12:21:27;69350;;;27.35;61.51
51417;BME280;50158;51.528;6.982;2022-08-19T12:23:55;69370;;;27.54;58.86
51417;BME280;50158;51.528;6.982;2022-08-19T12:26:24;69320;;;27.13;59.5
51417;BME280;50158;51.528;6.982;2022-08-19T12:28:51;69300;;;26.88;60.32
51417;BME280;50158;51.528;6.982;2022-08-19T12:31:20;69400;;;27.85;59.26
51417;BME280;50158;51.528;6.982;2022-08-19T12:33:48;69430;;;28.09;57.6
51417;BME280;50158;51.528;6.982;2022-08-19T12:36:16;69550;;;29.17;54.21
51417;BME280;50158;51.528;6.982;2022-08-19T12:38:44;69500;;;28.75;53.73
51417;BME280;50158;51.528;6.982;2022-08-19T12:41:13;69520;;;28.89;52.92
51417;BME280;50158;51.528;6.982;2022-08-19T12:43:41;69470;;;28.5;53.68
51417;BME280;50158;51.528;6.982;2022-08-19T12:46:10;69420;;;28.02;54.39
51417;BME280;50158;51.528;6.982;2022-08-19T12:48:38;69380;;;27.62;54.62
51417;BME280;50158;51.528;6.982;2022-08-19T12:51:06;69530;;;29.05;52.08
51417;BME280;50158;51.528;6.982;2022-08-19T12:53:34;69630;;;29.97;48.01
51417;BME280;50158;51.528;6.982;2022-08-19T12:56:02;69570;;;29.41;48.91
51417;BME280;50158;51.528;6.982;2022-08-19T12:58:31;69710;;;30.65;46.74
51417;BME280;50158;51.528;6.982;2022-08-19T13:00:59;69790;;;31.44;43.56
51417;BME280;50158;51.528;6.982;2022-08-19T13:03:27;69660;;;30.19;45.18
51417;BME280;50158;51.528;6.982;2022-08-19T13:05:55;69650;;;30.08;45.41
51417;BME280;50158;51.528;6.982;2022-08-19T13:10:52;69690;;;30.52;44.05
51417;BME280;50158;51.528;6.982;2022-08-19T13:13:20;69690;;;30.45;44.28
51417;BME280;50158;51.528;6.982;2022-08-19T13:15:49;69690;;;30.48;44.63
51417;BME280;50158;51.528;6.982;2022-08-19T13:18:17;69780;;;31.29;42.88
51417;BME280;50158;51.528;6.982;2022-08-19T13:20:45;69850;;;31.91;40.97
51417;BME280;50158;51.528;6.982;2022-08-19T13:25:09;69920;;;32.55;39.19
51417;BME280;50158;51.528;6.982;2022-08-19T13:27:37;69990;;;33.21;36.65
51417;BME280;50158;51.528;6.982;2022-08-19T13:30:07;69920;;;32.58;37.49
51417;BME280;50158;51.528;6.982;2022-08-19T13:32:34;69920;;;32.58;37.13
51417;BME280;50158;51.528;6.982;2022-08-19T13:35:03;69910;;;32.49;36.81
51417;BME280;50158;51.528;6.982;2022-08-19T13:37:30;70040;;;33.7;36.14
51417;BME280;50158;51.528;6.982;2022-08-19T13:39:59;70040;;;33.62;34.18
51417;BME280;50158;51.528;6.982;2022-08-19T13:42:27;69910;;;32.46;35.29
51417;BME280;50158;51.528;6.982;2022-08-19T13:44:55;69890;;;32.34;35.42
51417;BME280;50158;51.528;6.982;2022-08-19T13:47:23;69970;;;33;35.75
51417;BME280;50158;51.528;6.982;2022-08-19T13:49:52;69960;;;32.93;35.89
51417;BME280;50158;51.528;6.982;2022-08-19T13:54:48;69880;;;32.18;37.62
51417;BME280;50158;51.528;6.982;2022-08-19T13:57:16;69900;;;32.34;38.77
51417;BME280;50158;51.528;6.982;2022-08-19T14:02:13;69720;;;30.71;39.3
51417;BME280;50158;51.528;6.982;2022-08-19T14:04:41;69700;;;30.6;40.4
51417;BME280;50158;51.528;6.982;2022-08-19T14:07:10;69750;;;31.02;40.04
51417;BME280;50158;51.528;6.982;2022-08-19T14:12:23;69740;;;30.95;39.34
51417;BME280;50158;51.528;6.982;2022-08-19T14:14:51;69780;;;31.31;38.78
51417;BME280;50158;51.528;6.982;2022-08-19T14:17:19;69690;;;30.49;39.7
51417;BME280;50158;51.528;6.982;2022-08-19T14:21:43;69810;;;31.6;39
51417;BME280;50158;51.528;6.982;2022-08-19T14:24:11;69800;;;31.5;38.35
51417;BME280;50158;51.528;6.982;2022-08-19T14:26:39;69810;;;31.57;38.37
51417;BME280;50158;51.528;6.982;2022-08-19T14:29:08;69840;;;31.83;38.76
51417;BME280;50158;51.528;6.982;2022-08-19T14:31:36;69900;;;32.41;38.05
51417;BME280;50158;51.528;6.982;2022-08-19T14:34:04;69970;;;32.98;36.94
51417;BME280;50158;51.528;6.982;2022-08-19T14:36:33;69840;;;31.8;37.85
51417;BME280;50158;51.528;6.982;2022-08-19T14:39:01;69730;;;30.87;39.91
51417;BME280;50158;51.528;6.982;2022-08-19T14:41:29;69630;;;29.88;43.38
51417;BME280;50158;51.528;6.982;2022-08-19T14:43:57;69700;;;30.53;42.77
51417;BME280;50158;51.528;6.982;2022-08-19T14:46:26;69760;;;31.09;41.73
51417;BME280;50158;51.528;6.982;2022-08-19T14:48:54;69680;;;30.38;43.37
51417;BME280;50158;51.528;6.982;2022-08-19T14:51:23;69640;;;29.97;43.97
51417;BME280;50158;51.528;6.982;2022-08-19T14:53:50;69660;;;30.21;43.85
51417;BME280;50158;51.528;6.982;2022-08-19T14:56:20;69500;;;28.69;48.7
51417;BME280;50158;51.528;6.982;2022-08-19T14:58:47;69510;;;28.85;49.03
51417;BME280;50158;51.528;6.982;2022-08-19T15:01:15;69440;;;28.21;50.42
51417;BME280;50158;51.528;6.982;2022-08-19T15:03:44;69400;;;27.81;51.73
51417;BME280;50158;51.528;6.982;2022-08-19T15:06:12;69320;;;27.13;54.85
51417;BME280;50158;51.528;6.982;2022-08-19T15:08:41;69320;;;27.12;55.27
51417;BME280;50158;51.528;6.982;2022-08-19T15:11:09;69370;;;27.53;53.52